CheckWX is a tool to help pilots better visualize weather data.  It is not intended as a substitute for an official pre-flight weather briefing.

06:11:34 UTC

KSDF TAF
Louisville International-Standiford Field Airport
Louisville, Kentucky, USA
KSDF 010520Z 0106/0212 VRB04KT P6SM SKC FM011400 12007KT P6SM SKC FM012100 16007KT P6SM FEW120 FM020100 VRB04KT P6SM SCT120

Jun-1@
06:00 UTC

Jun-1 @ 06:00 UTC

Jun-1@
14:00 UTC

Jun-1 @ 14:00 UTC

TAF KSDF 010520Z 0106/0212 VRB04KT P6SM SKC

Expired

Wind
  • Variable at 4 KTS
Cloud Levels
  • Clear skies

Jun-1@
14:00 UTC

Jun-1 @ 14:00 UTC

Jun-1@
21:00 UTC

Jun-1 @ 21:00 UTC

FM011400 12007KT P6SM SKC

Expired

Wind
  • 120° at 7 KTS
Cloud Levels
  • Clear skies

Jun-1@
21:00 UTC

Jun-1 @ 21:00 UTC

Jun-2@
01:00 UTC

Jun-2 @ 01:00 UTC

FM012100 16007KT P6SM FEW120

Expired

Wind
  • 160° at 7 KTS
Cloud Levels
  • Few at 12,000' AGL

Jun-2@
01:00 UTC

Jun-2 @ 01:00 UTC

Jun-2@
12:00 UTC

Jun-2 @ 12:00 UTC

FM020100 VRB04KT P6SM SCT120

From

From Standard forecast or significant change

Wind
  • Variable at 4 KTS
Cloud Levels
  • Scattered at 12,000' AGL